createdAt,value
2022-10-23T00:01:32.015Z,3.90
2022-10-23T00:04:05.461Z,4.60
2022-10-23T00:06:33.137Z,4.80
2022-10-23T00:09:00.002Z,3.10
2022-10-23T00:11:29.451Z,3.20
2022-10-23T00:13:59.453Z,3.70
2022-10-23T00:16:27.326Z,3.50
2022-10-23T00:18:53.929Z,5.40
2022-10-23T00:21:20.883Z,2.50
2022-10-23T00:23:47.513Z,2.70
2022-10-23T00:26:15.189Z,3.30
2022-10-23T00:28:43.420Z,4.00
2022-10-23T00:31:10.576Z,3.40
2022-10-23T00:33:40.704Z,4.20
2022-10-23T00:36:10.346Z,5.20
2022-10-23T00:38:37.134Z,3.60
2022-10-23T00:41:05.050Z,4.00
2022-10-23T00:43:33.041Z,4.70
2022-10-23T00:45:59.985Z,5.00
2022-10-23T00:48:28.103Z,5.50
2022-10-23T00:50:55.376Z,6.90
2022-10-23T00:53:22.565Z,5.70
2022-10-23T00:55:53.284Z,5.20
2022-10-23T00:58:20.636Z,7.90
2022-10-23T01:00:56.266Z,8.80
2022-10-23T01:03:26.849Z,8.30
2022-10-23T01:05:57.269Z,7.70
2022-10-23T01:08:45.212Z,10.40
2022-10-23T01:11:17.608Z,8.50
2022-10-23T01:13:49.140Z,7.50
2022-10-23T01:16:26.427Z,6.90
2022-10-23T01:18:59.578Z,5.00
2022-10-23T01:21:41.412Z,8.20
2022-10-23T01:24:23.269Z,5.90
2022-10-23T01:27:18.964Z,7.70
2022-10-23T01:29:51.291Z,7.80
2022-10-23T01:32:34.772Z,6.60
2022-10-23T01:35:15.837Z,7.10
2022-10-23T01:37:47.171Z,5.60
2022-10-23T01:40:23.856Z,8.50
2022-10-23T01:42:56.099Z,5.30
2022-10-23T01:45:55.499Z,5.40
2022-10-23T01:48:28.299Z,4.90
2022-10-23T01:50:58.605Z,4.80
2022-10-23T01:53:30.543Z,4.80
2022-10-23T01:56:00.979Z,4.50
2022-10-23T01:58:30.149Z,4.40
2022-10-23T02:01:00.816Z,5.60
2022-10-23T02:03:30.921Z,5.40
2022-10-23T02:05:57.663Z,5.00
2022-10-23T02:08:27.044Z,6.00
2022-10-23T02:11:04.256Z,5.00
2022-10-23T02:13:43.160Z,5.90
2022-10-23T02:16:21.330Z,6.40
2022-10-23T02:19:06.395Z,6.40
2022-10-23T02:21:54.260Z,6.30
2022-10-23T02:24:31.054Z,5.30
2022-10-23T02:27:02.096Z,5.90
2022-10-23T02:30:01.163Z,5.00
2022-10-23T02:32:28.580Z,4.30
2022-10-23T02:34:55.577Z,5.10
2022-10-23T02:39:54.489Z,6.50
2022-10-23T02:42:39.156Z,5.00
2022-10-23T02:45:11.674Z,4.50
2022-10-23T02:48:01.159Z,5.20
2022-10-23T02:50:45.784Z,5.90
2022-10-23T02:53:21.407Z,6.20
2022-10-23T02:55:57.734Z,7.30
2022-10-23T02:58:48.698Z,6.30
2022-10-23T03:01:18.855Z,6.10
2022-10-23T03:03:52.078Z,8.50
2022-10-23T03:06:19.934Z,8.00
2022-10-23T03:08:54.135Z,6.40
2022-10-23T03:11:20.657Z,8.60
2022-10-23T03:13:48.494Z,8.20
2022-10-23T03:16:15.349Z,7.50
2022-10-23T03:18:48.176Z,8.20
2022-10-23T03:21:14.761Z,6.40
2022-10-23T03:23:41.330Z,8.20
2022-10-23T03:26:08.084Z,6.70
2022-10-23T03:28:38.603Z,8.10
2022-10-23T03:31:05.577Z,6.90
2022-10-23T03:33:32.841Z,7.70
2022-10-23T03:36:07.079Z,8.60
2022-10-23T03:38:35.156Z,8.10
2022-10-23T03:41:02.173Z,8.20
2022-10-23T03:43:28.741Z,10.90
2022-10-23T03:45:56.709Z,8.40
2022-10-23T03:48:25.122Z,8.60
2022-10-23T03:50:51.882Z,9.60
2022-10-23T03:53:18.477Z,9.00
2022-10-23T03:55:45.095Z,9.60
2022-10-23T03:58:11.897Z,9.30
2022-10-23T04:00:38.557Z,11.40
2022-10-23T04:03:05.149Z,9.80
2022-10-23T04:05:31.678Z,8.80
2022-10-23T04:07:58.347Z,11.20
2022-10-23T04:10:25.048Z,12.30
2022-10-23T04:12:51.739Z,8.90
2022-10-23T04:15:18.221Z,8.20
2022-10-23T04:17:46.017Z,9.10
2022-10-23T04:20:12.955Z,9.80
2022-10-23T04:22:39.564Z,10.90
2022-10-23T04:25:06.540Z,8.80
2022-10-23T04:27:34.334Z,10.90
2022-10-23T04:30:02.996Z,9.00
2022-10-23T04:32:29.597Z,9.90
2022-10-23T04:34:56.251Z,10.30
2022-10-23T04:37:22.953Z,11.00
2022-10-23T04:39:49.508Z,10.30
2022-10-23T04:42:16.145Z,10.70
2022-10-23T04:44:42.716Z,9.90
2022-10-23T04:47:09.369Z,8.30
2022-10-23T04:49:45.024Z,13.90
2022-10-23T04:52:20.365Z,12.40
2022-10-23T04:55:03.668Z,14.40
2022-10-23T04:57:42.791Z,13.20
2022-10-23T05:00:13.715Z,10.90
2022-10-23T05:02:52.548Z,11.00
2022-10-23T05:05:20.338Z,8.60
2022-10-23T05:08:22.858Z,8.30
2022-10-23T05:11:09.644Z,9.10
2022-10-23T05:13:41.606Z,9.80
2022-10-23T05:16:08.558Z,8.50
2022-10-23T05:18:39.935Z,8.70
2022-10-23T05:21:12.430Z,8.50
2022-10-23T05:23:43.115Z,9.30
2022-10-23T05:26:09.809Z,7.70
2022-10-23T05:28:37.580Z,8.30
2022-10-23T05:31:05.704Z,9.70
2022-10-23T05:33:34.386Z,10.90
2022-10-23T05:36:02.020Z,10.50
2022-10-23T05:38:33.100Z,12.40
2022-10-23T05:41:04.466Z,9.90
2022-10-23T05:43:31.446Z,12.10
2022-10-23T05:46:09.262Z,15.60
2022-10-23T05:48:53.365Z,10.00
2022-10-23T05:51:25.966Z,8.20
2022-10-23T05:54:00.048Z,7.30
2022-10-23T05:56:32.176Z,7.70
2022-10-23T05:59:07.683Z,8.90
2022-10-23T06:02:03.874Z,7.10
2022-10-23T06:04:40.062Z,7.30
2022-10-23T06:07:06.658Z,8.00
2022-10-23T06:09:33.599Z,6.30
2022-10-23T06:12:02.074Z,5.20
2022-10-23T06:14:30.255Z,5.70
2022-10-23T06:16:57.637Z,6.80
2022-10-23T06:19:24.521Z,6.90
2022-10-23T06:21:53.920Z,10.40
2022-10-23T06:24:24.842Z,9.40
2022-10-23T06:27:12.907Z,8.30
2022-10-23T06:29:43.489Z,8.10
2022-10-23T06:32:10.154Z,6.80
2022-10-23T06:34:37.488Z,6.40
2022-10-23T06:37:04.184Z,8.10
2022-10-23T06:39:39.802Z,7.90
2022-10-23T06:42:13.578Z,7.20
2022-10-23T06:44:56.125Z,6.80
2022-10-23T06:47:43.278Z,6.10
2022-10-23T06:50:33.176Z,5.20
2022-10-23T06:53:04.949Z,5.80
2022-10-23T06:55:32.687Z,5.10
2022-10-23T06:57:59.361Z,7.60
2022-10-23T07:00:26.064Z,6.20
2022-10-23T07:02:53.324Z,5.30
2022-10-23T07:05:19.999Z,5.90
2022-10-23T07:07:46.651Z,7.10
2022-10-23T07:10:16.463Z,6.80
2022-10-23T07:12:48.180Z,10.10
2022-10-23T07:15:34.963Z,8.60
2022-10-23T07:18:02.568Z,9.10
2022-10-23T07:20:38.847Z,7.90
2022-10-23T07:23:05.522Z,9.20
2022-10-23T07:25:36.167Z,10.10
2022-10-23T07:28:04.085Z,8.70
2022-10-23T07:30:31.097Z,24.30
2022-10-23T07:32:58.798Z,9.20
2022-10-23T07:35:37.016Z,7.60
2022-10-23T07:38:08.887Z,7.80
2022-10-23T07:40:39.243Z,9.90
2022-10-23T07:43:06.659Z,5.80
2022-10-23T07:45:33.636Z,6.50
2022-10-23T07:48:04.256Z,7.70
2022-10-23T07:50:40.014Z,6.50
2022-10-23T07:53:10.554Z,16.10
2022-10-23T07:55:42.237Z,8.90
2022-10-23T07:58:12.448Z,7.80
2022-10-23T08:00:44.818Z,9.80
2022-10-23T08:03:16.257Z,7.90
2022-10-23T08:05:43.484Z,7.90
2022-10-23T08:08:10.190Z,5.40
2022-10-23T08:10:37.947Z,13.90
2022-10-23T08:13:05.790Z,7.30
2022-10-23T08:15:58.779Z,5.30
2022-10-23T08:18:48.896Z,8.50
2022-10-23T08:21:16.494Z,6.20
2022-10-23T08:23:44.534Z,6.80
2022-10-23T08:26:12.098Z,6.50
2022-10-23T08:28:38.829Z,9.50
2022-10-23T08:31:13.486Z,5.60
2022-10-23T08:33:40.466Z,6.60
2022-10-23T08:36:20.417Z,6.50
2022-10-23T08:38:48.071Z,7.30
2022-10-23T08:41:33.206Z,7.60
2022-10-23T08:44:32.292Z,5.80
2022-10-23T08:47:07.870Z,7.50
2022-10-23T08:49:52.874Z,5.40
2022-10-23T08:52:46.251Z,8.90
2022-10-23T08:55:22.793Z,4.80
2022-10-23T08:57:53.301Z,5.00
2022-10-23T09:00:19.935Z,8.00
2022-10-23T09:02:51.820Z,7.70
2022-10-23T09:05:36.316Z,8.90
2022-10-23T09:08:40.930Z,9.20
2022-10-23T09:11:22.421Z,4.50
2022-10-23T09:14:04.976Z,6.30
2022-10-23T09:16:53.764Z,6.00
2022-10-23T09:19:27.469Z,5.60
2022-10-23T09:21:55.700Z,6.10
2022-10-23T09:24:24.902Z,5.50
2022-10-23T09:26:53.305Z,5.10
2022-10-23T09:29:28.577Z,3.50
2022-10-23T09:31:58.777Z,4.40
2022-10-23T09:34:28.705Z,4.90
2022-10-23T09:36:59.128Z,5.90
2022-10-23T09:39:30.628Z,5.50
2022-10-23T09:41:58.406Z,56.80
2022-10-23T09:44:27.759Z,9.80
2022-10-23T09:46:59.901Z,89.10
2022-10-23T09:49:31.353Z,25.10
2022-10-23T09:52:19.235Z,5.50
2022-10-23T09:54:46.892Z,6.30
2022-10-23T09:57:13.697Z,6.20
2022-10-23T09:59:41.346Z,8.90
2022-10-23T10:02:26.797Z,7.00
2022-10-23T10:05:28.607Z,20.00
2022-10-23T10:08:19.453Z,15.50
2022-10-23T10:10:57.775Z,8.90
2022-10-23T10:13:33.229Z,6.80
2022-10-23T10:16:12.445Z,5.60
2022-10-23T10:19:07.608Z,16.70
2022-10-23T10:21:54.480Z,4.80
2022-10-23T10:24:28.488Z,3.90
2022-10-23T10:27:09.686Z,9.40
2022-10-23T10:29:49.651Z,6.20
2022-10-23T10:32:31.567Z,4.00
2022-10-23T10:35:18.459Z,4.10
2022-10-23T10:38:12.613Z,4.10
2022-10-23T10:40:55.686Z,11.10
2022-10-23T10:44:09.815Z,5.10
2022-10-23T10:46:45.963Z,6.20
2022-10-23T10:49:26.869Z,8.10
2022-10-23T10:52:19.987Z,6.60
2022-10-23T10:54:54.963Z,6.10
2022-10-23T10:57:42.265Z,6.50
2022-10-23T11:00:19.641Z,5.10
2022-10-23T11:02:52.888Z,8.10
2022-10-23T11:05:29.660Z,6.80
2022-10-23T11:08:01.496Z,19.30
2022-10-23T11:10:29.435Z,13.10
2022-10-23T11:12:56.601Z,8.00
2022-10-23T11:15:38.554Z,5.20
2022-10-23T11:18:15.979Z,6.80
2022-10-23T11:20:58.080Z,4.70
2022-10-23T11:23:40.821Z,9.60
2022-10-23T11:26:10.216Z,6.70
2022-10-23T11:29:02.693Z,7.10
2022-10-23T11:31:51.902Z,9.70
2022-10-23T11:34:27.295Z,12.40
2022-10-23T11:36:57.683Z,8.90
2022-10-23T11:39:30.772Z,8.80
2022-10-23T11:42:04.033Z,6.90
2022-10-23T11:44:57.030Z,5.60
2022-10-23T11:47:36.304Z,4.70
2022-10-23T11:50:06.134Z,4.20
2022-10-23T11:52:45.731Z,5.00
2022-10-23T11:55:29.424Z,4.80
2022-10-23T12:00:30.279Z,4.80
2022-10-23T12:02:59.066Z,6.20
2022-10-23T12:05:40.914Z,5.30
2022-10-23T12:08:25.047Z,5.30
2022-10-23T12:10:55.231Z,7.80
2022-10-23T12:13:28.309Z,5.60
2022-10-23T12:15:58.437Z,5.50
2022-10-23T12:18:28.040Z,4.00
2022-10-23T12:20:57.717Z,6.70
2022-10-23T12:23:30.056Z,6.20
2022-10-23T12:26:45.137Z,4.80
2022-10-23T12:29:17.624Z,5.70
2022-10-23T12:31:59.932Z,6.70
2022-10-23T12:34:49.502Z,6.10
2022-10-23T12:37:40.687Z,5.90
2022-10-23T12:40:09.110Z,6.90
2022-10-23T12:42:37.369Z,5.50
2022-10-23T12:45:17.597Z,6.20
2022-10-23T12:47:46.045Z,4.40
2022-10-23T12:50:27.514Z,5.80
2022-10-23T12:53:03.011Z,5.80
2022-10-23T12:55:51.101Z,4.80
2022-10-23T12:58:23.391Z,4.20
2022-10-23T13:00:57.337Z,4.20
2022-10-23T13:03:25.881Z,5.50
2022-10-23T13:08:22.740Z,6.40
2022-10-23T13:11:15.284Z,5.60
2022-10-23T13:13:42.021Z,5.40
2022-10-23T13:16:23.216Z,5.10
2022-10-23T13:18:50.428Z,3.90
2022-10-23T13:21:21.349Z,4.50
2022-10-23T13:23:48.997Z,4.50
2022-10-23T13:26:32.439Z,5.10
2022-10-23T13:29:02.944Z,5.00
2022-10-23T13:31:34.972Z,4.70
2022-10-23T13:34:01.860Z,6.10
2022-10-23T13:36:30.536Z,5.70
2022-10-23T13:38:59.363Z,4.60
2022-10-23T13:41:28.637Z,7.40
2022-10-23T13:43:55.383Z,9.20
2022-10-23T13:46:25.128Z,4.50
2022-10-23T13:48:51.953Z,6.20
2022-10-23T13:51:22.581Z,9.30
2022-10-23T13:53:50.273Z,5.40
2022-10-23T13:56:19.193Z,6.40
2022-10-23T13:58:45.927Z,6.60
2022-10-23T14:01:27.060Z,7.10
2022-10-23T14:03:55.905Z,7.60
2022-10-23T14:06:23.029Z,5.20
2022-10-23T14:08:49.698Z,8.60
2022-10-23T14:11:18.411Z,7.70
2022-10-23T14:16:15.210Z,8.60
2022-10-23T14:18:42.520Z,9.30
2022-10-23T14:21:11.977Z,9.10
2022-10-23T14:23:38.616Z,9.50
2022-10-23T14:26:08.472Z,13.90
2022-10-23T14:28:35.503Z,8.00
2022-10-23T14:31:07.028Z,7.70
2022-10-23T14:33:33.756Z,8.10
2022-10-23T14:36:00.373Z,9.90
2022-10-23T14:38:27.229Z,6.20
2022-10-23T14:40:53.972Z,9.70
2022-10-23T14:43:22.114Z,9.50
2022-10-23T14:45:49.122Z,5.30
2022-10-23T14:48:16.264Z,7.20
2022-10-23T14:50:46.229Z,11.90
2022-10-23T14:53:13.403Z,6.90
2022-10-23T14:55:40.182Z,8.90
2022-10-23T14:58:07.326Z,12.90
2022-10-23T15:00:33.870Z,10.40
2022-10-23T15:03:00.992Z,10.60
2022-10-23T15:05:27.809Z,14.30
2022-10-23T15:07:55.796Z,12.30
2022-10-23T15:10:22.300Z,10.10
2022-10-23T15:12:48.813Z,10.40
2022-10-23T15:15:15.434Z,12.80
2022-10-23T15:17:42.188Z,19.70
2022-10-23T15:20:09.457Z,19.60
2022-10-23T15:22:36.165Z,19.20
2022-10-23T15:25:02.886Z,16.60
2022-10-23T15:27:29.507Z,16.30
2022-10-23T15:29:56.074Z,18.20
2022-10-23T15:32:22.794Z,16.70
2022-10-23T15:34:51.401Z,15.50
2022-10-23T15:37:18.104Z,16.80
2022-10-23T15:39:44.819Z,10.90
2022-10-23T15:42:11.808Z,14.70
2022-10-23T15:44:39.250Z,14.80
2022-10-23T15:47:05.928Z,17.30
2022-10-23T15:49:32.771Z,23.10
2022-10-23T15:51:59.761Z,25.50
2022-10-23T15:54:29.278Z,20.10
2022-10-23T15:56:59.708Z,24.00
2022-10-23T15:59:27.496Z,19.60
2022-10-23T16:01:54.861Z,23.60
2022-10-23T16:04:21.852Z,25.40
2022-10-23T16:06:48.635Z,28.90
2022-10-23T16:09:15.537Z,33.90
2022-10-23T16:11:42.839Z,42.00
2022-10-23T16:14:15.279Z,41.10
2022-10-23T16:16:42.173Z,57.10
2022-10-23T16:19:09.721Z,56.40
2022-10-23T16:21:36.549Z,54.80
2022-10-23T16:24:06.686Z,47.00
2022-10-23T16:26:34.139Z,99.50
2022-10-23T16:29:03.501Z,53.90
2022-10-23T16:31:30.149Z,43.00
2022-10-23T16:33:58.862Z,38.60
2022-10-23T16:36:26.332Z,39.90
2022-10-23T16:39:17.971Z,33.80
2022-10-23T16:42:03.749Z,36.00
2022-10-23T16:44:41.194Z,38.40
2022-10-23T16:47:08.685Z,36.20
2022-10-23T16:49:35.310Z,35.20
2022-10-23T16:52:02.233Z,38.10
2022-10-23T16:54:29.135Z,33.30
2022-10-23T16:56:55.763Z,30.80
2022-10-23T16:59:22.358Z,29.50
2022-10-23T17:01:49.130Z,34.00
2022-10-23T17:04:16.093Z,36.20
2022-10-23T17:06:42.613Z,30.00
2022-10-23T17:09:09.304Z,36.00
2022-10-23T17:11:38.361Z,51.90
2022-10-23T17:14:12.774Z,55.40
2022-10-23T17:16:44.475Z,37.40
2022-10-23T17:19:20.559Z,29.80
2022-10-23T17:21:47.758Z,33.60
2022-10-23T17:24:14.569Z,35.90
2022-10-23T17:26:41.521Z,47.30
2022-10-23T17:29:09.910Z,59.10
2022-10-23T17:31:39.095Z,51.70
2022-10-23T17:34:16.635Z,51.50
2022-10-23T17:36:46.670Z,49.00
2022-10-23T17:39:16.813Z,47.90
2022-10-23T17:41:44.466Z,40.50
2022-10-23T17:44:11.671Z,43.50
2022-10-23T17:46:38.516Z,53.10
2022-10-23T17:49:05.142Z,53.00
2022-10-23T17:51:33.962Z,54.70
2022-10-23T17:54:03.863Z,50.90
2022-10-23T17:56:32.560Z,58.40
2022-10-23T18:01:29.392Z,56.80
2022-10-23T18:06:28.891Z,46.50
2022-10-23T18:08:56.494Z,39.90
2022-10-23T18:11:29.301Z,36.90
2022-10-23T18:13:57.263Z,49.20
2022-10-23T18:16:24.338Z,59.90
2022-10-23T18:18:51.950Z,64.40
2022-10-23T18:21:21.441Z,56.30
2022-10-23T18:23:48.154Z,63.80
2022-10-23T18:26:21.094Z,73.20
2022-10-23T18:28:49.882Z,60.10
2022-10-23T18:31:17.546Z,46.40
2022-10-23T18:33:44.944Z,50.20
2022-10-23T18:36:19.737Z,62.70
2022-10-23T18:38:47.538Z,57.30
2022-10-23T18:41:18.115Z,57.70
2022-10-23T18:43:45.011Z,49.20
2022-10-23T18:46:12.999Z,38.00
2022-10-23T18:48:40.188Z,48.10
2022-10-23T18:51:32.081Z,45.80
2022-10-23T18:54:05.575Z,37.90
2022-10-23T18:56:33.494Z,36.70
2022-10-23T18:59:02.457Z,42.50
2022-10-23T19:03:58.338Z,32.50
2022-10-23T19:06:25.751Z,39.20
2022-10-23T19:08:52.840Z,38.90
2022-10-23T19:11:22.269Z,42.80
2022-10-23T19:13:49.468Z,38.10
2022-10-23T19:16:30.173Z,36.00
2022-10-23T19:19:04.759Z,44.90
2022-10-23T19:21:35.922Z,40.90
2022-10-23T19:24:14.229Z,41.30
2022-10-23T19:26:41.851Z,33.20
2022-10-23T19:29:12.486Z,35.70
2022-10-23T19:31:42.503Z,35.80
2022-10-23T19:34:09.066Z,34.90
2022-10-23T19:36:35.686Z,28.60
2022-10-23T19:39:02.399Z,33.10
2022-10-23T19:41:30.454Z,29.20
2022-10-23T19:43:57.005Z,39.20
2022-10-23T19:46:23.585Z,36.70
2022-10-23T19:48:50.271Z,35.70
2022-10-23T19:51:16.929Z,37.20
2022-10-23T19:53:43.569Z,36.90
2022-10-23T19:56:11.659Z,32.00
2022-10-23T19:58:38.979Z,25.20
2022-10-23T20:01:09.515Z,28.00
2022-10-23T20:03:37.262Z,25.40
2022-10-23T20:06:03.901Z,23.00
2022-10-23T20:08:32.754Z,31.30
2022-10-23T20:11:02.637Z,32.90
2022-10-23T20:13:29.226Z,28.00
2022-10-23T20:15:55.735Z,20.10
2022-10-23T20:18:22.609Z,17.50
2022-10-23T20:20:49.222Z,21.60
2022-10-23T20:23:15.749Z,21.60
2022-10-23T20:25:42.688Z,21.60
2022-10-23T20:28:11.565Z,24.30
2022-10-23T20:30:41.907Z,29.80
2022-10-23T20:33:08.547Z,25.70
2022-10-23T20:35:39.996Z,18.00
2022-10-23T20:38:07.205Z,16.60
2022-10-23T20:40:34.175Z,19.10
2022-10-23T20:43:00.698Z,35.30
2022-10-23T20:45:27.348Z,24.80
2022-10-23T20:47:53.858Z,44.30
2022-10-23T20:50:23.137Z,26.00
2022-10-23T20:52:50.260Z,18.70
2022-10-23T20:55:17.501Z,16.60
2022-10-23T20:57:44.421Z,17.80
2022-10-23T21:00:11.557Z,19.30
2022-10-23T21:02:38.201Z,21.60
2022-10-23T21:05:05.262Z,24.00
2022-10-23T21:07:31.776Z,24.50
2022-10-23T21:09:58.763Z,27.80
2022-10-23T21:12:25.274Z,27.20
2022-10-23T21:14:52.889Z,33.10
2022-10-23T21:17:19.827Z,29.60
2022-10-23T21:19:46.896Z,32.10
2022-10-23T21:22:13.456Z,25.80
2022-10-23T21:24:40.238Z,18.70
2022-10-23T21:27:06.721Z,23.10
2022-10-23T21:29:33.618Z,29.10
2022-10-23T21:32:03.132Z,24.10
2022-10-23T21:34:31.056Z,19.70
2022-10-23T21:37:12.333Z,17.90
2022-10-23T21:39:41.466Z,14.90
2022-10-23T21:42:08.176Z,30.80
2022-10-23T21:44:34.951Z,26.90
2022-10-23T21:47:01.493Z,26.10
2022-10-23T21:49:28.026Z,23.50
2022-10-23T21:51:54.528Z,19.10
2022-10-23T21:54:21.145Z,28.30
2022-10-23T21:56:50.099Z,29.00
2022-10-23T22:01:46.371Z,27.10
2022-10-23T22:04:14.916Z,20.80
2022-10-23T22:06:42.201Z,24.20
2022-10-23T22:09:11.163Z,22.40
2022-10-23T22:11:38.162Z,30.70
2022-10-23T22:14:04.836Z,31.10
2022-10-23T22:16:31.469Z,33.70
2022-10-23T22:18:58.072Z,28.50
2022-10-23T22:21:27.590Z,28.30
2022-10-23T22:23:56.319Z,27.50
2022-10-23T22:26:26.428Z,28.90
2022-10-23T22:28:55.623Z,46.60
2022-10-23T22:31:25.932Z,32.60
2022-10-23T22:33:53.390Z,27.50
2022-10-23T22:36:20.997Z,29.70
2022-10-23T22:38:47.850Z,24.70
2022-10-23T22:41:15.156Z,26.00
2022-10-23T22:43:41.737Z,20.40
2022-10-23T22:46:11.787Z,22.80
2022-10-23T22:48:38.774Z,14.30
2022-10-23T22:51:09.041Z,18.10
2022-10-23T22:53:36.099Z,12.80
2022-10-23T22:56:08.192Z,12.50
2022-10-23T22:58:35.328Z,13.10
2022-10-23T23:01:15.291Z,10.30
2022-10-23T23:03:42.539Z,12.00
2022-10-23T23:06:09.853Z,13.60
2022-10-23T23:08:38.158Z,10.10
2022-10-23T23:11:06.381Z,12.10
2022-10-23T23:13:33.794Z,11.10
2022-10-23T23:16:01.805Z,11.40
2022-10-23T23:18:29.458Z,10.30
2022-10-23T23:21:05.337Z,8.60
2022-10-23T23:23:32.178Z,12.60
2022-10-23T23:25:58.709Z,13.00
2022-10-23T23:28:25.437Z,14.30
2022-10-23T23:31:02.727Z,15.20
2022-10-23T23:33:29.384Z,11.40
2022-10-23T23:35:56.109Z,12.30
2022-10-23T23:38:22.934Z,12.50
2022-10-23T23:40:51.961Z,13.20
2022-10-23T23:43:19.211Z,13.50
2022-10-23T23:45:46.046Z,13.50
2022-10-23T23:48:12.568Z,12.00
2022-10-23T23:50:39.042Z,11.70
2022-10-23T23:53:05.554Z,13.90
2022-10-23T23:55:32.208Z,11.70
2022-10-23T23:57:58.782Z,9.80
